LiveATC.Net - Listen to live air traffic control over the Internet!


ICAO: SAZS  IATA: BRC   Airport: San Carlos de Bariloche Airport
City: Rio Negro
Country: Argentina   Continent: South America
SAZS METAR Weather: SAZS 161300Z 14008KT 9999 BKN036 02/M01 Q1031
SAZS Flight Activity (FlightAware)

SAZS Tower/Approach
Feed Status: DOWN
Last heard on: 2019-06-16 10:06:03 (0 days 3 hours 43 minutes ago)
SAZS Tower/Approach Audio Archives
FacilityFrequency
Bariloche Twr/App119.100
Bariloche Twr/App (Aux)118.650
Chapelco Tower/Approach119.600
Comodoro Rivadavia Control125.500
Emergency121.500
Ezeiza South125.200
Puerto Mont Radar North121.300
Puerto Mont Radar South128.300
Puerto Mont Radio126.900

Feed courtesy of: Juan Jose Porta - Bariloche

NOTICE

Unauthorized use prohibited. See LiveATC.net Terms of Service


Find LiveATC Audio Streams


Airport/ARTCC Code

Frequency Search
(e.g., 124.400, 128.75)
Site-wide search
 


Browse LiveATC Feeds
Top 50 LiveATC Feeds
LiveATC Feed Map
Bad Weather Areas

LiveATC FAQ
Offer LiveATC feed
Contact LiveATC.net
Press Inquiries

LiveATC on iPhone
LiveATC on Android

Windows Phone
Windows 8/10

LiveATC Mobile
(Mobile browser)

ATC Audio Archives
Interesting Recordings

LiveATC Forums


Home Page
About LiveATC.net
Make a Donation
Terms of Use
Privacy Policy

Canadian Air Freqs

AIRMETs/SIGMETs

FAA Airport Status
Nat'l Airspace Status
Arrival Demand Charts


Server Software By:
Icecast.org
Liquidsoap